ADDS METAR Data INFO
IDs: Format: Raw Decoded Include TAF

Data at: 1951 UTC 18 Feb 2018

METAR for:TIST (St Thomas/King Arpt, --, VI)
Text:TIST 181853Z 09014G22KT 10SM -RA CLR 28/17 A3009 RMK AO2 SLP188 P0000 T02780172 $
Temperature: 27.8°C ( 82°F)
Dewpoint: 17.2°C ( 63°F) [RH = 53%]
Pressure (altimeter):30.09 inches Hg (1019.0 mb) [Sea level pressure: 1018.8 mb]
Winds:from the E (90 degrees) at 16 MPH (14 knots; 7.2 m/s) gusting to 25 MPH (22 knots; 11.3 m/s)
Visibility:10 or more sm (16+ km)
Ceiling:at least 12,000 feet AGL
Clouds:sky clear below 12,000 feet AGL
Weather:-RA (light rain)
QC Flag:SOME DATA ABOVE MAY BE INACCURATE!!!"$" is an indication the sensor requires maintenance.